LDN weather

Public forecast

Using degrees Celsius for public forecast. Weather courtesy of forecast.io.

Closest aviation weather report (METAR) to Lamidanda Airport

Closest report is Tribhuvan International Airport, 74.7 nm (138.4 km) WNW. Retrieved 2020/08/15 06:20 UTC (39 minutes ago):

VNKT 150620Z 17005KT 9999 FEW010 SCT030 BKN100 26/22 Q1007 NOSIG

Closest aviation forecast (TAF) to Lamidanda Airport

Closest forecast is Tribhuvan International Airport, 74.7 nm (138.4 km) WNW. Retrieved 2020/08/15 06:48 UTC (11 minutes ago):

TAF TAF VNKT 150500Z 1506/1606 26004KT 8000 FEW010 SCT025 BKN100 PROB40 1509/1513 5000 -RA/TSRA FEW025CB BECMG 1513/1514 18003KT 7000 FEW015 SCT030 BKN100 PROB40 1515/1519 5000 -TSRA/RA FEW025CB BECMG 1600/1602 01003KT 6000 FEW008 SCT025 BKN100 BECMG 1604/1605 24006KT 8000 FEW010 SCT030 BKN100